Fort Wayne, Indiana
Current Conditions -  °F | °C
As of 7:54 AM on Friday 24 Oct 2014 (Local Time) from KFWA Reporting Station
Broken Clouds Broken Clouds  
Wind Chill:   Ceiling: 9000
Heat Index:   Visibility: 7mi
Dew Point:   Wind: 0mph
Humidity: 89%   Direction: NA
Pressure: 30.1"   Gusts: NA
Location:  41.08°N, 85.1°W
Report Text: KFWA 241154Z 00000KT 7SM FEW075 BKN090 06/04 A3010 RMK AO2 SLP195 T00560039 10056 20022 58002
Loading
Personal Weather Stations






























Interactive Weather Map New forecast layout! Learn more

10-Day Weather Forecast

Advertisements
Track Severe Weather on mobile